createdAt,value
2018-09-11T00:00:42.266Z,68.10
2018-09-11T00:03:10.412Z,68.10
2018-09-11T00:05:38.561Z,67.20
2018-09-11T00:08:06.702Z,67.20
2018-09-11T00:10:34.862Z,67.20
2018-09-11T00:13:02.998Z,67.30
2018-09-11T00:15:31.154Z,67.20
2018-09-11T00:17:59.314Z,67.30
2018-09-11T00:20:27.478Z,67.20
2018-09-11T00:22:55.625Z,67.40
2018-09-11T00:25:23.782Z,67.40
2018-09-11T00:27:51.955Z,66.90
2018-09-11T00:30:20.114Z,67.60
2018-09-11T00:32:48.279Z,67.50
2018-09-11T00:35:16.458Z,67.60
2018-09-11T00:37:44.609Z,67.60
2018-09-11T00:40:12.757Z,67.70
2018-09-11T00:42:40.922Z,67.70
2018-09-11T00:45:09.062Z,68.00
2018-09-11T00:47:37.213Z,68.00
2018-09-11T00:50:05.481Z,68.20
2018-09-11T00:52:33.665Z,68.20
2018-09-11T00:55:01.846Z,68.30
2018-09-11T00:57:30.006Z,68.40
2018-09-11T00:59:58.142Z,68.50
2018-09-11T01:02:26.291Z,68.60
2018-09-11T01:04:54.424Z,68.60
2018-09-11T01:07:22.582Z,68.70
2018-09-11T01:09:50.713Z,68.90
2018-09-11T01:12:18.878Z,69.00
2018-09-11T01:14:47.008Z,69.10
2018-09-11T01:17:15.145Z,69.00
2018-09-11T01:19:43.286Z,69.20
2018-09-11T01:22:11.606Z,69.40
2018-09-11T01:24:39.758Z,70.20
2018-09-11T01:27:07.909Z,69.60
2018-09-11T01:29:36.056Z,70.60
2018-09-11T01:32:04.210Z,69.90
2018-09-11T01:34:32.346Z,70.00
2018-09-11T01:37:00.502Z,70.10
2018-09-11T01:39:28.630Z,70.10
2018-09-11T01:41:56.822Z,70.20
2018-09-11T01:44:24.964Z,70.20
2018-09-11T01:46:53.101Z,70.20
2018-09-11T01:49:21.254Z,70.30
2018-09-11T01:51:49.393Z,70.20
2018-09-11T01:54:17.710Z,70.20
2018-09-11T01:56:45.865Z,70.30
2018-09-11T01:59:14.010Z,70.20
2018-09-11T02:01:42.213Z,70.10
2018-09-11T02:04:10.386Z,70.20
2018-09-11T02:06:38.534Z,70.30
2018-09-11T02:09:09.102Z,70.20
2018-09-11T02:11:37.239Z,70.20
2018-09-11T02:14:05.398Z,70.20
2018-09-11T02:16:33.541Z,70.20
2018-09-11T02:19:01.879Z,70.20
2018-09-11T02:21:30.022Z,70.20
2018-09-11T02:23:58.173Z,70.20
2018-09-11T02:26:26.311Z,70.40
2018-09-11T02:28:54.643Z,70.40
2018-09-11T02:31:22.787Z,70.40
2018-09-11T02:33:50.927Z,70.30
2018-09-11T02:36:19.101Z,70.40
2018-09-11T02:38:47.294Z,70.50
2018-09-11T02:41:15.430Z,70.50
2018-09-11T02:43:43.577Z,70.50
2018-09-11T02:46:11.723Z,70.50
2018-09-11T02:48:39.870Z,70.60
2018-09-11T02:51:08.019Z,70.60
2018-09-11T02:53:36.167Z,70.60
2018-09-11T02:56:04.649Z,70.60
2018-09-11T02:58:32.806Z,70.60
2018-09-11T03:01:00.959Z,70.60
2018-09-11T03:03:29.101Z,70.50
2018-09-11T03:05:57.246Z,70.60
2018-09-11T03:08:25.395Z,70.50
2018-09-11T03:10:53.547Z,70.60
2018-09-11T03:13:21.706Z,70.50
2018-09-11T03:15:49.852Z,70.50
2018-09-11T03:18:18.197Z,70.40
2018-09-11T03:20:46.347Z,70.40
2018-09-11T03:23:14.503Z,70.40
2018-09-11T03:25:42.642Z,70.30
2018-09-11T03:28:10.787Z,70.30
2018-09-11T03:30:38.935Z,70.40
2018-09-11T03:33:07.070Z,70.30
2018-09-11T03:35:35.218Z,70.30
2018-09-11T03:38:03.366Z,70.20
2018-09-11T03:40:31.513Z,70.20
2018-09-11T03:42:59.663Z,70.20
2018-09-11T03:45:27.837Z,70.20
2018-09-11T03:47:55.966Z,70.30
2018-09-11T03:50:24.184Z,70.20
2018-09-11T03:52:52.335Z,70.20
2018-09-11T03:55:20.479Z,70.20
2018-09-11T03:57:48.662Z,70.30
2018-09-11T04:00:16.814Z,70.20
2018-09-11T04:02:44.987Z,70.20
2018-09-11T04:05:13.134Z,70.30
2018-09-11T04:07:41.287Z,70.20
2018-09-11T04:10:09.447Z,70.30
2018-09-11T04:12:37.607Z,70.30
2018-09-11T04:15:05.765Z,70.10
2018-09-11T04:17:40.217Z,70.20
2018-09-11T04:20:08.366Z,70.10
2018-09-11T04:22:37.490Z,70.00
2018-09-11T04:25:05.644Z,69.90
2018-09-11T04:27:33.983Z,70.00
2018-09-11T04:30:02.158Z,69.80
2018-09-11T04:32:30.315Z,69.80
2018-09-11T04:34:58.466Z,69.70
2018-09-11T04:37:26.626Z,69.70
2018-09-11T04:39:54.813Z,70.50
2018-09-11T04:42:23.150Z,69.60
2018-09-11T04:44:51.314Z,69.60
2018-09-11T04:47:19.474Z,69.40
2018-09-11T04:49:47.656Z,69.30
2018-09-11T04:52:15.853Z,69.20
2018-09-11T04:54:44.250Z,69.10
2018-09-11T04:57:12.565Z,69.00
2018-09-11T04:59:40.737Z,69.00
2018-09-11T05:02:08.883Z,69.10
2018-09-11T05:04:37.074Z,69.00
2018-09-11T05:07:05.311Z,69.70
2018-09-11T05:09:33.482Z,68.90
2018-09-11T05:12:01.663Z,68.90
2018-09-11T05:14:29.899Z,69.00
2018-09-11T05:16:58.087Z,69.00
2018-09-11T05:19:26.258Z,69.00
2018-09-11T05:21:54.407Z,69.00
2018-09-11T05:24:22.648Z,69.00
2018-09-11T05:26:50.805Z,69.00
2018-09-11T05:29:18.966Z,69.00
2018-09-11T05:31:47.133Z,68.90
2018-09-11T05:34:15.467Z,68.90
2018-09-11T05:36:43.617Z,68.90
2018-09-11T05:39:11.822Z,69.10
2018-09-11T05:41:39.942Z,69.10
2018-09-11T05:44:08.138Z,69.10
2018-09-11T05:46:36.278Z,69.00
2018-09-11T05:49:04.446Z,69.10
2018-09-11T05:51:32.626Z,69.00
2018-09-11T05:54:00.757Z,69.00
2018-09-11T05:56:28.904Z,68.90
2018-09-11T05:58:57.071Z,68.90
2018-09-11T06:01:25.233Z,69.00
2018-09-11T06:03:53.387Z,69.00
2018-09-11T06:06:21.575Z,68.90
2018-09-11T06:08:49.816Z,68.80
2018-09-11T06:11:17.975Z,68.90
2018-09-11T06:13:46.150Z,68.90
2018-09-11T06:16:14.377Z,68.80
2018-09-11T06:18:42.522Z,69.00
2018-09-11T06:21:10.701Z,68.90
2018-09-11T06:23:38.851Z,68.90
2018-09-11T06:26:07.055Z,68.80
2018-09-11T06:28:35.209Z,68.80
2018-09-11T06:31:03.408Z,68.70
2018-09-11T06:33:31.566Z,68.60
2018-09-11T06:35:59.730Z,68.60
2018-09-11T06:38:28.017Z,68.60
2018-09-11T06:40:56.234Z,68.70
2018-09-11T06:43:24.420Z,68.60
2018-09-11T06:45:52.584Z,68.60
2018-09-11T06:48:20.747Z,68.60
2018-09-11T06:50:48.907Z,68.40
2018-09-11T06:53:17.102Z,68.40
2018-09-11T06:55:45.298Z,68.20
2018-09-11T06:58:13.469Z,69.10
2018-09-11T07:00:41.698Z,68.10
2018-09-11T07:03:09.782Z,68.10
2018-09-11T07:05:37.986Z,68.10
2018-09-11T07:08:06.125Z,68.00
2018-09-11T07:10:34.340Z,68.00
2018-09-11T07:13:02.492Z,68.00
2018-09-11T07:15:30.637Z,68.10
2018-09-11T07:17:58.787Z,68.00
2018-09-11T07:20:27.124Z,67.70
2018-09-11T07:22:55.100Z,67.90
2018-09-11T07:25:23.233Z,68.00
2018-09-11T07:27:51.399Z,67.80
2018-09-11T07:30:19.596Z,67.80
2018-09-11T07:32:47.742Z,68.00
2018-09-11T07:35:15.925Z,67.80
2018-09-11T07:37:44.086Z,67.80
2018-09-11T07:40:12.206Z,67.80
2018-09-11T07:42:40.355Z,68.00
2018-09-11T07:45:08.534Z,68.10
2018-09-11T07:47:36.694Z,68.00
2018-09-11T07:50:05.061Z,67.90
2018-09-11T07:52:33.253Z,68.00
2018-09-11T07:55:01.425Z,67.80
2018-09-11T07:57:29.686Z,67.80
2018-09-11T07:59:57.872Z,67.40
2018-09-11T08:02:26.024Z,67.60
2018-09-11T08:04:54.195Z,67.20
2018-09-11T08:07:22.374Z,66.80
2018-09-11T08:09:50.510Z,66.80
2018-09-11T08:12:18.664Z,66.70
2018-09-11T08:14:46.808Z,66.50
2018-09-11T08:17:15.048Z,66.50
2018-09-11T08:19:43.249Z,66.40
2018-09-11T08:22:11.357Z,66.40
2018-09-11T08:24:39.598Z,66.40
2018-09-11T08:27:07.753Z,66.30
2018-09-11T08:29:35.907Z,66.40
2018-09-11T08:32:04.078Z,67.10
2018-09-11T08:34:32.255Z,66.30
2018-09-11T08:37:00.429Z,66.30
2018-09-11T08:39:28.591Z,66.10
2018-09-11T08:41:57.115Z,65.90
2018-09-11T08:44:25.278Z,66.00
2018-09-11T08:46:53.429Z,65.80
2018-09-11T08:49:21.622Z,65.80
2018-09-11T08:51:49.834Z,65.80
2018-09-11T08:54:18.023Z,65.80
2018-09-11T08:56:46.182Z,65.90
2018-09-11T08:59:14.390Z,65.10
2018-09-11T09:01:42.534Z,65.60
2018-09-11T09:04:10.702Z,65.70
2018-09-11T09:06:38.878Z,65.70
2018-09-11T09:09:09.014Z,65.60
2018-09-11T09:11:37.631Z,65.60
2018-09-11T09:14:05.866Z,65.60
2018-09-11T09:16:34.113Z,65.60
2018-09-11T09:19:02.296Z,65.50
2018-09-11T09:21:30.440Z,65.40
2018-09-11T09:23:58.595Z,65.40
2018-09-11T09:26:26.778Z,65.30
2018-09-11T09:28:55.034Z,65.20
2018-09-11T09:31:23.422Z,64.90
2018-09-11T09:33:51.602Z,64.70
2018-09-11T09:36:20.371Z,64.60
2018-09-11T09:38:48.503Z,64.80
2018-09-11T09:41:16.673Z,64.70
2018-09-11T09:43:44.855Z,64.80
2018-09-11T09:46:12.996Z,64.80
2018-09-11T09:48:41.150Z,64.50
2018-09-11T09:51:09.314Z,64.30
2018-09-11T09:53:37.503Z,63.90
2018-09-11T09:56:05.666Z,64.10
2018-09-11T09:58:33.853Z,63.70
2018-09-11T10:01:07.446Z,63.30
2018-09-11T10:03:36.139Z,63.50
2018-09-11T10:06:04.410Z,63.50
2018-09-11T10:08:32.590Z,62.70
2018-09-11T10:11:00.775Z,62.40
2018-09-11T10:13:28.936Z,62.90
2018-09-11T10:15:57.263Z,62.10
2018-09-11T10:18:25.656Z,61.70
2018-09-11T10:20:53.835Z,61.70
2018-09-11T10:23:22.102Z,61.70
2018-09-11T10:25:50.267Z,62.10
2018-09-11T10:28:18.434Z,61.10
2018-09-11T10:30:46.690Z,61.10
2018-09-11T10:33:14.855Z,60.50
2018-09-11T10:35:43.190Z,60.10
2018-09-11T10:38:11.428Z,60.90
2018-09-11T10:40:39.838Z,59.90
2018-09-11T10:43:08.070Z,59.60
2018-09-11T10:45:36.246Z,58.70
2018-09-11T10:48:04.406Z,58.60
2018-09-11T10:50:32.578Z,58.70
2018-09-11T10:53:00.754Z,58.60
2018-09-11T10:55:28.967Z,58.30
2018-09-11T10:57:57.122Z,57.60
2018-09-11T11:00:25.356Z,57.60
2018-09-11T11:02:53.576Z,56.00
2018-09-11T11:05:21.748Z,55.60
2018-09-11T11:07:49.902Z,55.60
2018-09-11T11:10:18.089Z,55.60
2018-09-11T11:12:46.240Z,55.90
2018-09-11T11:15:14.442Z,56.00
2018-09-11T11:17:42.639Z,55.60
2018-09-11T11:20:10.802Z,55.20
2018-09-11T11:22:38.961Z,55.30
2018-09-11T11:25:07.234Z,55.70
2018-09-11T11:27:35.365Z,55.70
2018-09-11T11:30:03.512Z,55.70
2018-09-11T11:32:31.658Z,55.50
2018-09-11T11:34:59.831Z,55.60
2018-09-11T11:37:28.277Z,55.90
2018-09-11T11:39:56.268Z,55.70
2018-09-11T11:42:24.505Z,55.50
2018-09-11T11:44:52.634Z,55.60
2018-09-11T11:47:21.133Z,55.40
2018-09-11T11:49:50.445Z,55.20
2018-09-11T11:52:18.919Z,55.30
2018-09-11T11:54:47.208Z,55.20
2018-09-11T11:57:15.398Z,55.00
2018-09-11T11:59:43.576Z,55.10
2018-09-11T12:02:11.744Z,54.60
2018-09-11T12:04:39.907Z,54.60
2018-09-11T12:07:08.138Z,54.50
2018-09-11T12:09:36.302Z,55.30
2018-09-11T12:12:04.475Z,54.50
2018-09-11T12:14:32.810Z,54.20
2018-09-11T12:17:01.046Z,54.00
2018-09-11T12:19:29.362Z,53.90
2018-09-11T12:21:57.528Z,54.00
2018-09-11T12:24:25.688Z,54.00
2018-09-11T12:26:54.175Z,53.80
2018-09-11T12:29:22.327Z,53.50
2018-09-11T12:31:50.479Z,53.60
2018-09-11T12:34:18.637Z,53.60
2018-09-11T12:36:46.848Z,53.30
2018-09-11T12:39:14.998Z,52.90
2018-09-11T12:41:43.161Z,52.50
2018-09-11T12:44:11.355Z,52.50
2018-09-11T12:46:39.962Z,52.40
2018-09-11T12:49:07.803Z,52.10
2018-09-11T12:51:35.974Z,51.80
2018-09-11T12:54:04.118Z,52.00
2018-09-11T12:56:32.290Z,52.10
2018-09-11T12:59:00.434Z,52.30
2018-09-11T13:01:28.604Z,52.10
2018-09-11T13:03:56.762Z,51.70
2018-09-11T13:06:24.918Z,51.70
2018-09-11T13:08:53.183Z,51.70
2018-09-11T13:11:21.341Z,51.90
2018-09-11T13:13:49.650Z,52.00
2018-09-11T13:16:17.814Z,51.90
2018-09-11T13:18:45.991Z,52.00
2018-09-11T13:21:14.130Z,52.00
2018-09-11T13:23:42.290Z,52.00
2018-09-11T13:26:10.437Z,51.90
2018-09-11T13:28:38.596Z,51.90
2018-09-11T13:31:06.816Z,51.40
2018-09-11T13:33:34.969Z,51.10
2018-09-11T13:36:03.110Z,50.90
2018-09-11T13:38:31.302Z,51.00
2018-09-11T13:40:59.458Z,50.80
2018-09-11T13:43:27.657Z,51.00
2018-09-11T13:45:55.820Z,50.90
2018-09-11T13:48:24.054Z,50.60
2018-09-11T13:50:52.246Z,50.70
2018-09-11T13:53:20.397Z,50.70
2018-09-11T13:55:48.527Z,50.70
2018-09-11T13:58:16.682Z,51.00
2018-09-11T14:00:44.866Z,51.10
2018-09-11T14:03:13.059Z,51.10
2018-09-11T14:05:41.206Z,51.00
2018-09-11T14:08:09.698Z,51.00
2018-09-11T14:10:37.901Z,51.10
2018-09-11T14:13:06.202Z,51.00
2018-09-11T14:15:34.369Z,51.10
2018-09-11T14:18:02.563Z,51.30
2018-09-11T14:20:30.728Z,51.30
2018-09-11T14:22:58.918Z,51.30
2018-09-11T14:25:27.106Z,51.20
2018-09-11T14:27:55.250Z,51.50
2018-09-11T14:30:23.434Z,51.60
2018-09-11T14:32:51.686Z,51.70
2018-09-11T14:35:19.872Z,51.70
2018-09-11T14:37:48.130Z,51.60
2018-09-11T14:40:16.294Z,51.60
2018-09-11T14:42:44.479Z,51.50
2018-09-11T14:45:12.642Z,51.50
2018-09-11T14:47:41.711Z,51.50
2018-09-11T14:50:09.990Z,51.50
2018-09-11T14:52:38.363Z,51.50
2018-09-11T14:55:06.888Z,51.60
2018-09-11T14:57:35.633Z,51.40
2018-09-11T15:00:04.252Z,51.50
2018-09-11T15:02:32.370Z,51.40
2018-09-11T15:05:00.682Z,51.30
2018-09-11T15:07:29.198Z,51.10
2018-09-11T15:09:57.434Z,51.10
2018-09-11T15:12:25.622Z,51.10
2018-09-11T15:14:53.952Z,51.10
2018-09-11T15:17:22.477Z,51.10
2018-09-11T15:19:50.659Z,51.00
2018-09-11T15:22:18.901Z,51.00
2018-09-11T15:24:47.000Z,50.90
2018-09-11T15:27:15.186Z,50.90
2018-09-11T15:29:43.402Z,50.80
2018-09-11T15:32:11.578Z,50.70
2018-09-11T15:34:39.783Z,50.70
2018-09-11T15:37:07.984Z,50.70
2018-09-11T15:39:36.136Z,50.80
2018-09-11T15:42:04.369Z,51.30
2018-09-11T15:44:32.563Z,50.60
2018-09-11T15:47:00.821Z,50.60
2018-09-11T15:49:29.017Z,50.70
2018-09-11T15:51:57.182Z,50.60
2018-09-11T15:54:25.383Z,50.60
2018-09-11T15:56:53.555Z,50.50
2018-09-11T15:59:21.698Z,50.50
2018-09-11T16:01:49.847Z,50.40
2018-09-11T16:04:18.018Z,50.20
2018-09-11T16:06:46.183Z,50.30
2018-09-11T16:09:14.345Z,50.30
2018-09-11T16:11:42.520Z,50.30
2018-09-11T16:14:11.474Z,50.50
2018-09-11T16:16:39.710Z,50.40
2018-09-11T16:19:07.883Z,50.90
2018-09-11T16:21:36.037Z,50.30
2018-09-11T16:24:04.220Z,50.30
2018-09-11T16:26:33.050Z,50.30
2018-09-11T16:29:01.466Z,50.40
2018-09-11T16:31:30.024Z,50.50
2018-09-11T16:33:58.187Z,50.50
2018-09-11T16:36:26.427Z,50.70
2018-09-11T16:38:54.567Z,50.50
2018-09-11T16:41:22.710Z,50.40
2018-09-11T16:43:50.852Z,50.30
2018-09-11T16:46:19.010Z,50.30
2018-09-11T16:48:47.176Z,50.20
2018-09-11T16:51:15.357Z,50.10
2018-09-11T16:53:43.600Z,50.00
2018-09-11T16:56:11.853Z,50.00
2018-09-11T16:58:41.492Z,49.80
2018-09-11T17:01:09.742Z,49.80
2018-09-11T17:03:38.692Z,49.80
2018-09-11T17:06:08.393Z,49.80
2018-09-11T17:08:36.664Z,50.50
2018-09-11T17:11:04.762Z,49.80
2018-09-11T17:13:32.930Z,50.00
2018-09-11T17:16:01.123Z,50.10
2018-09-11T17:18:29.281Z,50.00
2018-09-11T17:20:57.426Z,49.90
2018-09-11T17:23:25.729Z,49.90
2018-09-11T17:25:53.902Z,50.00
2018-09-11T17:28:22.067Z,50.00
2018-09-11T17:30:50.251Z,50.00
2018-09-11T17:33:18.434Z,50.00
2018-09-11T17:35:46.653Z,49.90
2018-09-11T17:38:14.815Z,49.90
2018-09-11T17:40:43.055Z,50.00
2018-09-11T17:43:11.219Z,50.10
2018-09-11T17:45:39.435Z,50.10
2018-09-11T17:48:07.633Z,50.20
2018-09-11T17:50:36.652Z,50.30
2018-09-11T17:53:04.827Z,50.30
2018-09-11T17:55:33.054Z,50.40
2018-09-11T17:58:01.214Z,50.50
2018-09-11T18:00:29.361Z,50.50
2018-09-11T18:02:57.586Z,50.50
2018-09-11T18:05:25.720Z,50.60
2018-09-11T18:07:53.867Z,50.60
2018-09-11T18:10:22.078Z,50.60
2018-09-11T18:12:50.227Z,50.70
2018-09-11T18:15:18.367Z,50.70
2018-09-11T18:17:46.600Z,50.90
2018-09-11T18:20:14.813Z,50.90
2018-09-11T18:22:43.047Z,50.90
2018-09-11T18:25:12.079Z,51.00
2018-09-11T18:27:41.007Z,51.00
2018-09-11T18:30:09.576Z,51.10
2018-09-11T18:32:38.128Z,51.00
2018-09-11T18:35:08.518Z,51.20
2018-09-11T18:37:37.430Z,51.10
2018-09-11T18:40:05.852Z,51.10
2018-09-11T18:42:34.202Z,51.20
2018-09-11T18:45:02.351Z,51.20
2018-09-11T18:47:31.137Z,51.30
2018-09-11T18:49:59.323Z,51.20
2018-09-11T18:52:27.670Z,51.20
2018-09-11T18:54:55.860Z,51.30
2018-09-11T18:57:24.058Z,51.30
2018-09-11T18:59:52.510Z,51.30
2018-09-11T19:02:20.774Z,52.10
2018-09-11T19:04:48.945Z,51.30
2018-09-11T19:07:17.122Z,51.30
2018-09-11T19:09:45.326Z,51.40
2018-09-11T19:12:13.506Z,51.60
2018-09-11T19:14:41.672Z,51.60
2018-09-11T19:17:09.846Z,51.70
2018-09-11T19:19:38.022Z,51.70
2018-09-11T19:22:06.198Z,51.60
2018-09-11T19:24:34.370Z,51.70
2018-09-11T19:27:02.557Z,51.70
2018-09-11T19:29:30.746Z,51.80
2018-09-11T19:31:58.893Z,51.80
2018-09-11T19:34:27.074Z,51.80
2018-09-11T19:36:55.229Z,51.80
2018-09-11T19:39:23.443Z,51.90
2018-09-11T19:41:51.606Z,52.00
2018-09-11T19:44:19.838Z,52.00
2018-09-11T19:46:48.022Z,52.00
2018-09-11T19:49:16.410Z,52.00
2018-09-11T19:51:44.622Z,52.00
2018-09-11T19:54:12.842Z,52.00
2018-09-11T19:56:41.115Z,52.00
2018-09-11T19:59:09.470Z,52.20
2018-09-11T20:01:37.627Z,52.10
2018-09-11T20:04:05.786Z,52.20
2018-09-11T20:06:33.959Z,52.20
2018-09-11T20:09:02.118Z,52.30
2018-09-11T20:11:30.434Z,52.30
2018-09-11T20:13:58.607Z,52.40
2018-09-11T20:16:26.781Z,52.50
2018-09-11T20:18:55.057Z,52.50
2018-09-11T20:21:23.211Z,52.60
2018-09-11T20:23:51.355Z,52.60
2018-09-11T20:26:19.516Z,52.70
2018-09-11T20:28:47.706Z,52.80
2018-09-11T20:31:15.896Z,52.80
2018-09-11T20:33:44.141Z,52.90
2018-09-11T20:36:12.347Z,52.90
2018-09-11T20:38:40.579Z,53.00
2018-09-11T20:41:08.770Z,53.10
2018-09-11T20:43:36.922Z,54.00
2018-09-11T20:46:05.115Z,53.20
2018-09-11T20:48:33.263Z,53.20
2018-09-11T20:51:01.423Z,53.30
2018-09-11T20:53:29.619Z,53.20
2018-09-11T20:55:57.897Z,54.00
2018-09-11T20:58:26.004Z,53.40
2018-09-11T21:00:54.186Z,53.40
2018-09-11T21:03:22.355Z,53.60
2018-09-11T21:05:50.534Z,53.60
2018-09-11T21:08:19.309Z,53.60
2018-09-11T21:10:47.771Z,53.80
2018-09-11T21:13:16.046Z,53.80
2018-09-11T21:15:44.818Z,53.90
2018-09-11T21:18:12.969Z,54.00
2018-09-11T21:20:41.186Z,54.00
2018-09-11T21:23:11.257Z,54.00
2018-09-11T21:25:39.642Z,54.10
2018-09-11T21:28:07.966Z,54.10
2018-09-11T21:30:36.150Z,54.20
2018-09-11T21:33:04.314Z,54.30
2018-09-11T21:35:32.451Z,54.30
2018-09-11T21:38:00.617Z,54.50
2018-09-11T21:40:28.750Z,54.50
2018-09-11T21:42:56.913Z,54.80
2018-09-11T21:45:25.046Z,54.90
2018-09-11T21:47:53.201Z,54.90
2018-09-11T21:50:21.393Z,54.90
2018-09-11T21:52:49.566Z,55.10
2018-09-11T21:55:17.723Z,55.00
2018-09-11T21:57:45.885Z,55.10
2018-09-11T22:00:14.117Z,55.10
2018-09-11T22:02:42.211Z,55.10
2018-09-11T22:05:10.877Z,55.20
2018-09-11T22:07:39.047Z,55.10
2018-09-11T22:10:08.558Z,55.20
2018-09-11T22:12:36.730Z,55.30
2018-09-11T22:15:05.014Z,55.40
2018-09-11T22:17:33.234Z,55.50
2018-09-11T22:20:01.371Z,55.50
2018-09-11T22:22:29.527Z,55.70
2018-09-11T22:24:57.825Z,55.60
2018-09-11T22:27:25.873Z,55.60
2018-09-11T22:29:54.039Z,55.70
2018-09-11T22:32:22.224Z,56.30
2018-09-11T22:34:50.370Z,55.70
2018-09-11T22:37:18.673Z,55.70
2018-09-11T22:39:46.710Z,55.70
2018-09-11T22:42:14.855Z,55.80
2018-09-11T22:44:43.017Z,55.80
2018-09-11T22:47:11.150Z,55.80
2018-09-11T22:49:39.374Z,56.00
2018-09-11T22:52:07.520Z,55.90
2018-09-11T22:54:35.678Z,56.00
2018-09-11T22:57:03.865Z,56.10
2018-09-11T22:59:32.019Z,56.10
2018-09-11T23:02:00.171Z,56.20
2018-09-11T23:04:28.350Z,56.30
2018-09-11T23:06:56.518Z,56.30
2018-09-11T23:09:24.718Z,56.40
2018-09-11T23:11:52.872Z,56.50
2018-09-11T23:14:21.034Z,56.50
2018-09-11T23:16:49.176Z,56.60
2018-09-11T23:19:17.351Z,56.60
2018-09-11T23:21:45.507Z,56.80
2018-09-11T23:24:13.668Z,56.90
2018-09-11T23:26:41.826Z,56.90
2018-09-11T23:29:09.983Z,57.00
2018-09-11T23:31:38.139Z,57.10
2018-09-11T23:34:06.519Z,57.70
2018-09-11T23:36:35.491Z,57.10
2018-09-11T23:39:04.646Z,57.20
2018-09-11T23:41:32.820Z,57.20
2018-09-11T23:44:00.969Z,57.20
2018-09-11T23:46:29.142Z,57.30
2018-09-11T23:48:57.339Z,57.30
2018-09-11T23:51:25.507Z,57.30
2018-09-11T23:53:53.688Z,57.40
2018-09-11T23:56:21.893Z,57.50
2018-09-11T23:58:50.082Z,57.40
